LFSL

Toul Rosières Air Base

Airport
ICAO code
LFSL
IATA Code
BVE
Summary
ICAO Region
EUR
ICAO Territory
Location

, Lorraine

Serving
Brive
Elevation
936 ft
Coordinates
45° 9' 3" N , 1° 28' 9" E
Metar
LFSL 181030Z AUTO 02003KT 340V100 9999 BKN013/// BKN019/// OVC036/// ///TCU 14/10 Q1014 TEMPO 4000 -SHRA BKN003 BKN020CB

Airport map

Aerial View

SKYbrary Partners:

Safety knowledge contributed by: